DOOM38 EGYM-EGYM
Flight info
| Callsign | DOOM38 |
|---|---|
| Flight time | 1h 29m |
| Altitude | 14000 |
| Route | VFR OAT |
| Aircraft | VF35/M-SDE2E3FGHIJ4J5M1RWXYZ/LB1D1 |
Departure
| Time | 2026-04-27 14:15 |
|---|---|
| Airport | RAF Marham (EGYM) |
Arrival
| Time | 2026-04-27 15:44 |
|---|---|
| Airport | RAF Marham (EGYM) |
| Time | Latitude | Longitude | Altitude | Speed | Heading |
|---|---|---|---|---|---|
| 2026-04-27 14:07 | 52.64055 | 0.54014 | 83 ft | 0 kts | 184° |
| 2026-04-27 14:08 | 52.64054 | 0.54014 | 83 ft | 1 kts | 184° |
| 2026-04-27 14:09 | 52.64026 | 0.54011 | 83 ft | 2 kts | 184° |
| 2026-04-27 14:09 | 52.64007 | 0.53988 | 85 ft | 7 kts | 245° |
| 2026-04-27 14:09 | 52.64007 | 0.53867 | 83 ft | 15 kts | 275° |
| 2026-04-27 14:09 | 52.64016 | 0.53703 | 85 ft | 14 kts | 275° |
| 2026-04-27 14:10 | 52.64026 | 0.53553 | 83 ft | 13 kts | 284° |
| 2026-04-27 14:10 | 52.64058 | 0.53465 | 84 ft | 0 kts | 309° |
| 2026-04-27 14:13 | 52.64109 | 0.53410 | 84 ft | 10 kts | 0° |
| 2026-04-27 14:13 | 52.64167 | 0.53465 | 83 ft | 1 kts | 55° |
| 2026-04-27 14:14 | 52.64309 | 0.53877 | 134 ft | 110 kts | 52° |
| 2026-04-27 14:14 | 52.65024 | 0.55476 | 249 ft | 241 kts | 52° |
| 2026-04-27 14:15 | 52.65994 | 0.57884 | 2684 ft | 206 kts | 52° |
| 2026-04-27 14:15 | 52.66780 | 0.59924 | 8106 ft | 228 kts | 54° |
| 2026-04-27 14:15 | 52.67808 | 0.62358 | 13164 ft | 319 kts | 51° |
| 2026-04-27 14:15 | 52.69508 | 0.65882 | 13971 ft | 437 kts | 30° |
| 2026-04-27 14:16 | 52.72788 | 0.67636 | 11588 ft | 545 kts | 30° |
| 2026-04-27 14:16 | 52.75590 | 0.71955 | 12228 ft | 576 kts | 44° |
| 2026-04-27 14:16 | 52.78419 | 0.76826 | 11850 ft | 564 kts | 45° |
| 2026-04-27 14:16 | 52.80888 | 0.81235 | 11505 ft | 486 kts | 46° |
| 2026-04-27 14:17 | 52.83022 | 0.85119 | 11356 ft | 430 kts | 46° |
| 2026-04-27 14:17 | 52.84971 | 0.88706 | 11310 ft | 419 kts | 46° |
| 2026-04-27 14:17 | 52.86910 | 0.92283 | 11295 ft | 417 kts | 46° |
| 2026-04-27 14:17 | 52.88848 | 0.95865 | 11287 ft | 415 kts | 46° |
| 2026-04-27 14:18 | 52.90757 | 0.99398 | 11286 ft | 416 kts | 46° |
| 2026-04-27 14:18 | 52.92684 | 1.02966 | 11294 ft | 416 kts | 46° |
| 2026-04-27 14:18 | 52.94613 | 1.06541 | 11296 ft | 415 kts | 46° |
| 2026-04-27 14:18 | 52.96543 | 1.10118 | 11301 ft | 416 kts | 46° |
| 2026-04-27 14:19 | 52.98576 | 1.13496 | 11253 ft | 413 kts | 33° |
| 2026-04-27 14:19 | 53.01137 | 1.15486 | 11188 ft | 406 kts | 9° |
| 2026-04-27 14:19 | 53.03919 | 1.15633 | 11154 ft | 398 kts | 346° |
| 2026-04-27 14:19 | 53.06442 | 1.13931 | 11154 ft | 393 kts | 322° |
| 2026-04-27 14:20 | 53.08291 | 1.10691 | 11145 ft | 388 kts | 298° |
| 2026-04-27 14:20 | 53.09170 | 1.06477 | 11164 ft | 386 kts | 279° |
| 2026-04-27 14:20 | 53.09466 | 1.02031 | 11232 ft | 388 kts | 274° |
| 2026-04-27 14:20 | 53.09600 | 0.97561 | 11265 ft | 387 kts | 272° |
| 2026-04-27 14:21 | 53.09666 | 0.93077 | 11282 ft | 387 kts | 271° |
| 2026-04-27 14:21 | 53.09216 | 0.88678 | 11216 ft | 391 kts | 250° |
| 2026-04-27 14:21 | 53.08082 | 0.84569 | 11208 ft | 392 kts | 245° |
| 2026-04-27 14:21 | 53.06779 | 0.80589 | 10124 ft | 386 kts | 241° |
| 2026-04-27 14:22 | 53.05367 | 0.76823 | 8976 ft | 395 kts | 238° |
| 2026-04-27 14:22 | 53.03652 | 0.72667 | 7793 ft | 432 kts | 236° |
| 2026-04-27 14:22 | 53.01865 | 0.68680 | 6670 ft | 428 kts | 234° |
| 2026-04-27 14:22 | 53.00022 | 0.64855 | 5756 ft | 423 kts | 232° |
| 2026-04-27 14:23 | 52.98104 | 0.61124 | 5550 ft | 427 kts | 230° |
| 2026-04-27 14:23 | 52.96141 | 0.57467 | 5334 ft | 425 kts | 230° |
| 2026-04-27 14:23 | 52.94171 | 0.53831 | 5126 ft | 425 kts | 229° |
| 2026-04-27 14:23 | 52.92202 | 0.50191 | 4920 ft | 422 kts | 229° |
| 2026-04-27 14:24 | 52.90239 | 0.46558 | 4696 ft | 423 kts | 230° |
| 2026-04-27 14:24 | 52.88290 | 0.42942 | 4482 ft | 420 kts | 230° |
| 2026-04-27 14:24 | 52.86367 | 0.39365 | 4268 ft | 420 kts | 230° |
| 2026-04-27 14:24 | 52.84436 | 0.35732 | 4024 ft | 422 kts | 232° |
| 2026-04-27 14:25 | 52.82728 | 0.31860 | 3881 ft | 412 kts | 248° |
| 2026-04-27 14:25 | 52.82253 | 0.27236 | 4249 ft | 419 kts | 269° |
| 2026-04-27 14:25 | 52.83038 | 0.23132 | 4163 ft | 412 kts | 322° |
| 2026-04-27 14:25 | 52.85066 | 0.19939 | 2122 ft | 396 kts | 311° |
| 2026-04-27 14:26 | 52.86533 | 0.17292 | 4325 ft | 261 kts | 326° |
| 2026-04-27 14:26 | 52.88593 | 0.18792 | 4892 ft | 439 kts | 65° |
| 2026-04-27 14:26 | 52.89441 | 0.23491 | 4728 ft | 431 kts | 102° |
| 2026-04-27 14:26 | 52.87734 | 0.26806 | 9207 ft | 389 kts | 159° |
| 2026-04-27 14:27 | 52.84719 | 0.28230 | 11559 ft | 477 kts | 165° |
| 2026-04-27 14:27 | 52.82766 | 0.26035 | 12536 ft | 423 kts | 290° |
| 2026-04-27 14:27 | 52.84391 | 0.21929 | 6407 ft | 445 kts | 306° |
| 2026-04-27 14:27 | 52.86356 | 0.18088 | 3364 ft | 306 kts | 328° |
| 2026-04-27 14:28 | 52.87900 | 0.16749 | 10192 ft | 311 kts | 337° |
| 2026-04-27 14:28 | 52.90644 | 0.17351 | 11346 ft | 463 kts | 35° |
| 2026-04-27 14:28 | 52.92337 | 0.21552 | 11806 ft | 490 kts | 99° |
| 2026-04-27 14:28 | 52.90509 | 0.25969 | 11875 ft | 460 kts | 115° |
| 2026-04-27 14:29 | 52.88184 | 0.29841 | 12527 ft | 486 kts | 143° |
| 2026-04-27 14:29 | 52.85361 | 0.32655 | 12760 ft | 467 kts | 187° |
| 2026-04-27 14:29 | 52.82664 | 0.30015 | 12883 ft | 468 kts | 227° |
| 2026-04-27 14:29 | 52.82221 | 0.25756 | 12839 ft | 423 kts | 315° |
| 2026-04-27 14:30 | 52.84468 | 0.22293 | 6817 ft | 465 kts | 315° |
| 2026-04-27 14:30 | 52.86810 | 0.18554 | 1426 ft | 480 kts | 324° |
| 2026-04-27 14:30 | 52.88398 | 0.19357 | 5700 ft | 209 kts | 80° |
| 2026-04-27 14:30 | 52.88420 | 0.21764 | 12398 ft | 264 kts | 118° |
| 2026-04-27 14:31 | 52.86188 | 0.22949 | 13139 ft | 453 kts | 180° |
| 2026-04-27 14:31 | 52.82854 | 0.23003 | 12466 ft | 448 kts | 204° |
| 2026-04-27 14:31 | 52.83780 | 0.20356 | 6545 ft | 422 kts | 329° |
| 2026-04-27 14:31 | 52.86368 | 0.17750 | 1606 ft | 440 kts | 355° |
| 2026-04-27 14:32 | 52.87880 | 0.18924 | 7020 ft | 237 kts | 41° |
| 2026-04-27 14:32 | 52.89706 | 0.21667 | 9988 ft | 439 kts | 39° |
| 2026-04-27 14:32 | 52.92037 | 0.25246 | 11869 ft | 463 kts | 42° |
| 2026-04-27 14:32 | 52.94400 | 0.29059 | 13603 ft | 480 kts | 41° |
| 2026-04-27 14:33 | 52.96822 | 0.32962 | 15371 ft | 495 kts | 41° |
| 2026-04-27 14:33 | 52.99356 | 0.37031 | 15140 ft | 496 kts | 41° |
| 2026-04-27 14:33 | 53.01884 | 0.41003 | 15845 ft | 510 kts | 39° |
| 2026-04-27 14:33 | 53.04437 | 0.44948 | 15096 ft | 497 kts | 40° |
| 2026-04-27 14:34 | 53.06950 | 0.48818 | 14599 ft | 491 kts | 40° |
| 2026-04-27 14:34 | 53.09461 | 0.52658 | 14412 ft | 492 kts | 40° |
| 2026-04-27 14:34 | 53.11981 | 0.56485 | 14333 ft | 490 kts | 39° |
| 2026-04-27 14:34 | 53.14505 | 0.60308 | 14306 ft | 489 kts | 39° |
| 2026-04-27 14:35 | 53.17026 | 0.64132 | 14297 ft | 490 kts | 39° |
| 2026-04-27 14:35 | 53.19545 | 0.67954 | 14289 ft | 490 kts | 39° |
| 2026-04-27 14:35 | 53.22071 | 0.71795 | 14290 ft | 489 kts | 40° |
| 2026-04-27 14:35 | 53.24587 | 0.75628 | 14287 ft | 490 kts | 40° |
| 2026-04-27 14:36 | 53.27105 | 0.79461 | 14301 ft | 489 kts | 40° |
| 2026-04-27 14:36 | 53.29622 | 0.83290 | 14294 ft | 490 kts | 40° |
| 2026-04-27 14:36 | 53.32105 | 0.87073 | 14294 ft | 489 kts | 40° |
| 2026-04-27 14:36 | 53.34622 | 0.90910 | 14291 ft | 490 kts | 40° |
| 2026-04-27 14:37 | 53.37133 | 0.94748 | 14300 ft | 489 kts | 40° |
| 2026-04-27 14:37 | 53.39590 | 0.98702 | 14264 ft | 492 kts | 47° |
| 2026-04-27 14:37 | 53.41332 | 1.03439 | 14162 ft | 453 kts | 67° |
| 2026-04-27 14:37 | 53.41949 | 1.08287 | 14143 ft | 404 kts | 89° |
| 2026-04-27 14:38 | 53.41748 | 1.12725 | 14204 ft | 360 kts | 98° |
| 2026-04-27 14:38 | 53.41386 | 1.16655 | 14249 ft | 327 kts | 100° |
| 2026-04-27 14:38 | 53.40983 | 1.20448 | 14274 ft | 328 kts | 101° |
| 2026-04-27 14:38 | 53.40534 | 1.24471 | 14291 ft | 371 kts | 101° |
| 2026-04-27 14:39 | 53.40055 | 1.28647 | 14292 ft | 366 kts | 101° |
| 2026-04-27 14:39 | 53.39572 | 1.32806 | 14292 ft | 365 kts | 101° |
| 2026-04-27 14:39 | 53.39084 | 1.36967 | 14287 ft | 362 kts | 101° |
| 2026-04-27 14:39 | 53.38596 | 1.41118 | 14291 ft | 364 kts | 101° |
| 2026-04-27 14:40 | 53.38105 | 1.45265 | 14288 ft | 363 kts | 101° |
| 2026-04-27 14:40 | 53.37986 | 1.49471 | 14240 ft | 361 kts | 77° |
| 2026-04-27 14:40 | 53.38951 | 1.53289 | 14207 ft | 357 kts | 49° |
| 2026-04-27 14:40 | 53.41045 | 1.56260 | 14195 ft | 441 kts | 25° |
| 2026-04-27 14:41 | 53.43865 | 1.57797 | 14160 ft | 426 kts | 2° |
| 2026-04-27 14:41 | 53.46758 | 1.57369 | 14144 ft | 416 kts | 339° |
| 2026-04-27 14:41 | 53.49397 | 1.55464 | 14199 ft | 411 kts | 330° |
| 2026-04-27 14:41 | 53.51900 | 1.53165 | 14247 ft | 408 kts | 327° |
| 2026-04-27 14:42 | 53.54347 | 1.50738 | 14278 ft | 409 kts | 326° |
| 2026-04-27 14:42 | 53.56772 | 1.48253 | 14287 ft | 409 kts | 326° |
| 2026-04-27 14:42 | 53.59173 | 1.45693 | 14279 ft | 406 kts | 320° |
| 2026-04-27 14:42 | 53.61131 | 1.42289 | 14237 ft | 405 kts | 306° |
| 2026-04-27 14:43 | 53.62777 | 1.38467 | 14261 ft | 403 kts | 303° |
| 2026-04-27 14:43 | 53.64328 | 1.34527 | 14279 ft | 403 kts | 301° |
| 2026-04-27 14:43 | 53.65834 | 1.30550 | 14285 ft | 403 kts | 301° |
| 2026-04-27 14:43 | 53.67325 | 1.26532 | 14288 ft | 403 kts | 301° |
| 2026-04-27 14:44 | 53.68801 | 1.22519 | 14292 ft | 403 kts | 300° |
| 2026-04-27 14:44 | 53.70279 | 1.18484 | 14290 ft | 403 kts | 300° |
| 2026-04-27 14:44 | 53.71746 | 1.14470 | 14294 ft | 404 kts | 300° |
| 2026-04-27 14:44 | 53.73219 | 1.10441 | 14290 ft | 402 kts | 300° |
| 2026-04-27 14:45 | 53.74694 | 1.06406 | 14309 ft | 405 kts | 300° |
| 2026-04-27 14:45 | 53.76167 | 1.02371 | 14292 ft | 402 kts | 301° |
| 2026-04-27 14:45 | 53.77605 | 0.98381 | 14294 ft | 403 kts | 301° |
| 2026-04-27 14:45 | 53.79057 | 0.94331 | 14289 ft | 402 kts | 300° |
| 2026-04-27 14:46 | 53.80507 | 0.90277 | 14294 ft | 403 kts | 300° |
| 2026-04-27 14:46 | 53.81957 | 0.86217 | 14287 ft | 402 kts | 300° |
| 2026-04-27 14:46 | 53.83402 | 0.82166 | 14295 ft | 403 kts | 300° |
| 2026-04-27 14:46 | 53.84849 | 0.78112 | 14290 ft | 402 kts | 300° |
| 2026-04-27 14:47 | 53.86297 | 0.74050 | 14296 ft | 403 kts | 300° |
| 2026-04-27 14:47 | 53.87744 | 0.69989 | 14291 ft | 402 kts | 300° |
| 2026-04-27 14:47 | 53.89193 | 0.65924 | 14298 ft | 403 kts | 300° |
| 2026-04-27 14:47 | 53.90644 | 0.61850 | 14294 ft | 402 kts | 300° |
| 2026-04-27 14:48 | 53.92093 | 0.57780 | 14300 ft | 403 kts | 300° |
| 2026-04-27 14:48 | 53.94971 | 0.49657 | 14285 ft | 397 kts | 301° |
| 2026-04-27 14:48 | 53.96376 | 0.45611 | 14292 ft | 399 kts | 301° |
| 2026-04-27 14:49 | 53.97775 | 0.41553 | 14297 ft | 399 kts | 300° |
| 2026-04-27 14:49 | 53.99045 | 0.37362 | 14257 ft | 398 kts | 288° |
| 2026-04-27 14:49 | 53.99501 | 0.32703 | 14242 ft | 402 kts | 276° |
| 2026-04-27 14:49 | 53.99608 | 0.27939 | 14272 ft | 405 kts | 272° |
| 2026-04-27 14:50 | 53.99607 | 0.23157 | 14281 ft | 403 kts | 271° |
| 2026-04-27 14:50 | 53.99560 | 0.18443 | 14298 ft | 404 kts | 271° |
| 2026-04-27 14:50 | 53.99490 | 0.13686 | 14280 ft | 403 kts | 270° |
| 2026-04-27 14:50 | 53.99411 | 0.08914 | 14295 ft | 404 kts | 270° |
| 2026-04-27 14:51 | 53.99328 | 0.04148 | 14295 ft | 403 kts | 270° |
| 2026-04-27 14:51 | 53.99242 | -0.00601 | 14301 ft | 404 kts | 270° |
| 2026-04-27 14:51 | 53.99150 | -0.05375 | 14292 ft | 402 kts | 270° |
| 2026-04-27 14:51 | 53.99086 | -0.08582 | 14297 ft | 404 kts | 270° |
| 2026-04-27 14:52 | 53.98955 | -0.14912 | 14302 ft | 402 kts | 270° |
| 2026-04-27 14:52 | 53.98855 | -0.19675 | 14314 ft | 404 kts | 270° |
| 2026-04-27 14:52 | 53.98753 | -0.24434 | 14310 ft | 403 kts | 270° |
| 2026-04-27 14:52 | 53.98650 | -0.29194 | 14306 ft | 404 kts | 270° |
| 2026-04-27 14:53 | 53.98547 | -0.33965 | 14297 ft | 403 kts | 270° |
| 2026-04-27 14:53 | 53.98445 | -0.38726 | 14302 ft | 404 kts | 270° |
| 2026-04-27 14:53 | 53.98343 | -0.43487 | 14290 ft | 403 kts | 270° |
| 2026-04-27 14:53 | 53.98240 | -0.48260 | 14311 ft | 403 kts | 270° |
| 2026-04-27 14:54 | 53.98138 | -0.53017 | 14242 ft | 402 kts | 270° |
| 2026-04-27 14:54 | 53.98038 | -0.57703 | 14654 ft | 401 kts | 270° |
| 2026-04-27 14:54 | 53.97933 | -0.62463 | 15384 ft | 405 kts | 270° |
| 2026-04-27 14:54 | 53.97826 | -0.67252 | 16138 ft | 406 kts | 270° |
| 2026-04-27 14:55 | 53.97714 | -0.72062 | 16925 ft | 409 kts | 270° |
| 2026-04-27 14:55 | 53.97597 | -0.76914 | 17746 ft | 413 kts | 270° |
| 2026-04-27 14:55 | 53.97475 | -0.81807 | 18575 ft | 414 kts | 270° |
| 2026-04-27 14:55 | 53.97349 | -0.86733 | 19301 ft | 422 kts | 270° |
| 2026-04-27 14:56 | 53.97218 | -0.91760 | 19723 ft | 427 kts | 270° |
| 2026-04-27 14:56 | 53.97083 | -0.96791 | 19894 ft | 428 kts | 270° |
| 2026-04-27 14:56 | 53.96944 | -1.01858 | 19960 ft | 428 kts | 270° |
| 2026-04-27 14:56 | 53.96801 | -1.06901 | 19963 ft | 428 kts | 270° |
| 2026-04-27 14:57 | 53.96635 | -1.11960 | 19991 ft | 429 kts | 270° |
| 2026-04-27 14:57 | 53.96456 | -1.17018 | 20004 ft | 428 kts | 270° |
| 2026-04-27 14:57 | 53.96271 | -1.22059 | 20006 ft | 429 kts | 270° |
| 2026-04-27 14:57 | 53.96083 | -1.27110 | 20011 ft | 428 kts | 270° |
| 2026-04-27 14:58 | 53.95892 | -1.32165 | 20015 ft | 429 kts | 270° |
| 2026-04-27 14:58 | 53.95699 | -1.37223 | 20012 ft | 429 kts | 270° |
| 2026-04-27 14:58 | 53.95505 | -1.42267 | 20022 ft | 428 kts | 270° |
| 2026-04-27 14:58 | 53.95311 | -1.47312 | 20022 ft | 429 kts | 270° |
| 2026-04-27 14:59 | 53.95182 | -1.50658 | 20026 ft | 428 kts | 270° |
| 2026-04-27 14:59 | 53.94923 | -1.57358 | 20034 ft | 428 kts | 270° |
| 2026-04-27 14:59 | 53.94708 | -1.62418 | 20018 ft | 432 kts | 270° |
| 2026-04-27 14:59 | 53.94472 | -1.67485 | 20027 ft | 430 kts | 270° |
| 2026-04-27 15:00 | 53.94227 | -1.72565 | 20031 ft | 432 kts | 270° |
| 2026-04-27 15:00 | 53.94058 | -1.75978 | 20020 ft | 430 kts | 270° |
| 2026-04-27 15:00 | 53.93804 | -1.81044 | 20015 ft | 431 kts | 270° |
| 2026-04-27 15:00 | 53.93552 | -1.86093 | 20010 ft | 430 kts | 270° |
| 2026-04-27 15:01 | 53.93297 | -1.91175 | 20006 ft | 431 kts | 270° |
| 2026-04-27 15:01 | 53.93043 | -1.96230 | 20005 ft | 432 kts | 270° |
| 2026-04-27 15:01 | 53.92787 | -2.01307 | 20009 ft | 431 kts | 270° |
| 2026-04-27 15:01 | 53.92529 | -2.06369 | 20005 ft | 431 kts | 270° |
| 2026-04-27 15:02 | 53.92269 | -2.11443 | 19978 ft | 433 kts | 270° |
| 2026-04-27 15:02 | 53.91988 | -2.16492 | 19997 ft | 435 kts | 270° |
| 2026-04-27 15:02 | 53.91692 | -2.21587 | 20009 ft | 434 kts | 270° |
| 2026-04-27 15:02 | 53.91407 | -2.26697 | 20010 ft | 433 kts | 274° |
| 2026-04-27 15:03 | 53.91812 | -2.31629 | 19935 ft | 419 kts | 292° |
| 2026-04-27 15:03 | 53.92848 | -2.36246 | 19956 ft | 417 kts | 297° |
| 2026-04-27 15:03 | 53.94040 | -2.40729 | 19986 ft | 416 kts | 298° |
| 2026-04-27 15:03 | 53.95290 | -2.45160 | 20015 ft | 416 kts | 299° |
| 2026-04-27 15:04 | 53.96560 | -2.49552 | 20008 ft | 415 kts | 300° |
| 2026-04-27 15:04 | 53.97843 | -2.53966 | 20041 ft | 417 kts | 300° |
| 2026-04-27 15:04 | 53.99120 | -2.58385 | 20033 ft | 416 kts | 300° |
| 2026-04-27 15:04 | 54.00394 | -2.62803 | 20023 ft | 417 kts | 300° |
| 2026-04-27 15:05 | 54.01660 | -2.67240 | 19991 ft | 418 kts | 300° |
| 2026-04-27 15:05 | 54.02919 | -2.71690 | 20010 ft | 418 kts | 300° |
| 2026-04-27 15:05 | 54.04281 | -2.76143 | 16845 ft | 417 kts | 302° |
| 2026-04-27 15:05 | 54.05885 | -2.80931 | 9738 ft | 504 kts | 301° |
| 2026-04-27 15:06 | 54.07756 | -2.85943 | 6178 ft | 483 kts | 315° |
| 2026-04-27 15:06 | 54.10548 | -2.87293 | 5383 ft | 411 kts | 2° |
| 2026-04-27 15:06 | 54.13415 | -2.87166 | 4934 ft | 408 kts | 2° |
| 2026-04-27 15:06 | 54.16202 | -2.87292 | 3935 ft | 400 kts | 354° |
| 2026-04-27 15:07 | 54.18968 | -2.87858 | 3211 ft | 405 kts | 354° |
| 2026-04-27 15:07 | 54.21724 | -2.88374 | 2539 ft | 398 kts | 352° |
| 2026-04-27 15:07 | 54.24392 | -2.89308 | 1934 ft | 386 kts | 326° |
| 2026-04-27 15:07 | 54.26071 | -2.92995 | 1275 ft | 394 kts | 309° |
| 2026-04-27 15:08 | 54.28359 | -2.94937 | 503 ft | 387 kts | 1° |
| 2026-04-27 15:08 | 54.31060 | -2.94728 | 412 ft | 389 kts | 4° |
| 2026-04-27 15:08 | 54.33763 | -2.94181 | 556 ft | 388 kts | 7° |
| 2026-04-27 15:08 | 54.36451 | -2.93775 | 557 ft | 389 kts | 352° |
| 2026-04-27 15:09 | 54.39099 | -2.94864 | 489 ft | 388 kts | 340° |
| 2026-04-27 15:09 | 54.41688 | -2.96191 | 667 ft | 396 kts | 349° |
| 2026-04-27 15:09 | 54.44213 | -2.97645 | 736 ft | 394 kts | 306° |
| 2026-04-27 15:09 | 54.45092 | -3.01889 | 668 ft | 381 kts | 338° |
| 2026-04-27 15:10 | 54.47692 | -3.03245 | 759 ft | 391 kts | 347° |
| 2026-04-27 15:10 | 54.50390 | -3.04275 | 1266 ft | 390 kts | 345° |
| 2026-04-27 15:10 | 54.52946 | -3.05686 | 1127 ft | 396 kts | 342° |
| 2026-04-27 15:10 | 54.55570 | -3.06833 | 1090 ft | 393 kts | 0° |
| 2026-04-27 15:11 | 54.58051 | -3.08446 | 1088 ft | 397 kts | 325° |
| 2026-04-27 15:11 | 54.59803 | -3.12100 | 1067 ft | 400 kts | 306° |
| 2026-04-27 15:11 | 54.61418 | -3.15967 | 757 ft | 391 kts | 306° |
| 2026-04-27 15:11 | 54.63375 | -3.19177 | 584 ft | 386 kts | 332° |
| 2026-04-27 15:12 | 54.65759 | -3.21405 | 729 ft | 396 kts | 332° |
| 2026-04-27 15:12 | 54.67512 | -3.24281 | 704 ft | 369 kts | 234° |
| 2026-04-27 15:12 | 54.65967 | -3.28273 | 859 ft | 403 kts | 244° |
| 2026-04-27 15:12 | 54.64700 | -3.32588 | 1032 ft | 406 kts | 244° |
| 2026-04-27 15:13 | 54.63158 | -3.36524 | 937 ft | 401 kts | 201° |
| 2026-04-27 15:13 | 54.60457 | -3.38211 | 1039 ft | 404 kts | 184° |
| 2026-04-27 15:13 | 54.58268 | -3.35323 | 823 ft | 407 kts | 126° |
| 2026-04-27 15:13 | 54.56520 | -3.31512 | 886 ft | 415 kts | 142° |
| 2026-04-27 15:14 | 54.54204 | -3.28662 | 761 ft | 409 kts | 134° |
| 2026-04-27 15:14 | 54.52590 | -3.24739 | 881 ft | 410 kts | 98° |
| 2026-04-27 15:14 | 54.51431 | -3.20418 | 1499 ft | 406 kts | 127° |
| 2026-04-27 15:14 | 54.48814 | -3.19281 | 2287 ft | 415 kts | 206° |
| 2026-04-27 15:15 | 54.47288 | -3.22777 | 1293 ft | 414 kts | 267° |
| 2026-04-27 15:15 | 54.45637 | -3.26462 | 648 ft | 404 kts | 223° |
| 2026-04-27 15:15 | 54.43609 | -3.29837 | 642 ft | 409 kts | 227° |
| 2026-04-27 15:15 | 54.41750 | -3.33413 | 746 ft | 397 kts | 226° |
| 2026-04-27 15:16 | 54.39163 | -3.34758 | 1293 ft | 423 kts | 160° |
| 2026-04-27 15:16 | 54.36807 | -3.32056 | 1219 ft | 421 kts | 126° |
| 2026-04-27 15:16 | 54.35652 | -3.27638 | 1316 ft | 415 kts | 116° |
| 2026-04-27 15:16 | 54.33360 | -3.24854 | 1244 ft | 420 kts | 157° |
| 2026-04-27 15:17 | 54.31154 | -3.21900 | 1117 ft | 411 kts | 117° |
| 2026-04-27 15:17 | 54.31566 | -3.17265 | 882 ft | 400 kts | 72° |
| 2026-04-27 15:17 | 54.32677 | -3.12941 | 811 ft | 401 kts | 48° |
| 2026-04-27 15:17 | 54.34434 | -3.09320 | 740 ft | 393 kts | 47° |
| 2026-04-27 15:18 | 54.35517 | -3.05136 | 1049 ft | 405 kts | 76° |
| 2026-04-27 15:18 | 54.36564 | -3.00930 | 923 ft | 390 kts | 30° |
| 2026-04-27 15:18 | 54.38757 | -2.98283 | 752 ft | 388 kts | 59° |
| 2026-04-27 15:18 | 54.39503 | -2.93718 | 609 ft | 393 kts | 66° |
| 2026-04-27 15:19 | 54.41525 | -2.90795 | 772 ft | 401 kts | 20° |
| 2026-04-27 15:19 | 54.44088 | -2.89494 | 904 ft | 385 kts | 342° |
| 2026-04-27 15:19 | 54.45954 | -2.92352 | 1839 ft | 388 kts | 358° |
| 2026-04-27 15:19 | 54.48690 | -2.92506 | 1072 ft | 396 kts | 356° |
| 2026-04-27 15:20 | 54.51408 | -2.92188 | 824 ft | 379 kts | 348° |
| 2026-04-27 15:20 | 54.54000 | -2.93524 | 930 ft | 388 kts | 343° |
| 2026-04-27 15:20 | 54.56332 | -2.92659 | 962 ft | 414 kts | 49° |
| 2026-04-27 15:20 | 54.57649 | -2.88407 | 829 ft | 394 kts | 63° |
| 2026-04-27 15:21 | 54.58764 | -2.84197 | 2029 ft | 390 kts | 83° |
| 2026-04-27 15:21 | 54.58469 | -2.79633 | 5607 ft | 358 kts | 98° |
| 2026-04-27 15:21 | 54.57903 | -2.75379 | 11926 ft | 376 kts | 101° |
| 2026-04-27 15:21 | 54.57163 | -2.70115 | 16586 ft | 482 kts | 99° |
| 2026-04-27 15:22 | 54.56288 | -2.64356 | 21004 ft | 518 kts | 99° |
| 2026-04-27 15:22 | 54.55272 | -2.57906 | 24046 ft | 588 kts | 98° |
| 2026-04-27 15:22 | 54.54151 | -2.51157 | 24876 ft | 590 kts | 100° |
| 2026-04-27 15:22 | 54.52912 | -2.44447 | 27094 ft | 589 kts | 101° |
| 2026-04-27 15:23 | 54.51666 | -2.37868 | 30102 ft | 583 kts | 102° |
| 2026-04-27 15:23 | 54.50295 | -2.31311 | 31834 ft | 579 kts | 118° |
| 2026-04-27 15:23 | 54.47233 | -2.26613 | 32581 ft | 614 kts | 153° |
| 2026-04-27 15:23 | 54.43319 | -2.23666 | 33075 ft | 615 kts | 159° |
| 2026-04-27 15:24 | 54.39231 | -2.21331 | 33857 ft | 624 kts | 162° |
| 2026-04-27 15:24 | 54.35248 | -2.18262 | 34171 ft | 630 kts | 153° |
| 2026-04-27 15:24 | 54.31251 | -2.15155 | 34371 ft | 633 kts | 159° |
| 2026-04-27 15:24 | 54.27198 | -2.12284 | 34518 ft | 609 kts | 156° |
| 2026-04-27 15:25 | 54.23547 | -2.09555 | 34999 ft | 549 kts | 155° |
| 2026-04-27 15:25 | 54.20036 | -2.06908 | 35517 ft | 555 kts | 158° |
| 2026-04-27 15:25 | 54.16365 | -2.04733 | 36094 ft | 559 kts | 163° |
| 2026-04-27 15:25 | 54.12692 | -2.02515 | 36659 ft | 563 kts | 157° |
| 2026-04-27 15:26 | 54.09300 | -1.99119 | 36944 ft | 571 kts | 141° |
| 2026-04-27 15:26 | 54.06295 | -1.94729 | 36910 ft | 568 kts | 137° |
| 2026-04-27 15:26 | 54.00343 | -1.85969 | 36949 ft | 558 kts | 139° |
| 2026-04-27 15:27 | 53.97313 | -1.81721 | 37076 ft | 570 kts | 140° |
| 2026-04-27 15:27 | 53.94249 | -1.77467 | 37034 ft | 568 kts | 140° |
| 2026-04-27 15:27 | 53.88123 | -1.69025 | 37021 ft | 568 kts | 140° |
| 2026-04-27 15:28 | 53.82018 | -1.60656 | 37009 ft | 567 kts | 140° |
| 2026-04-27 15:28 | 53.75891 | -1.52272 | 37202 ft | 564 kts | 140° |
| 2026-04-27 15:29 | 53.69782 | -1.43863 | 37281 ft | 567 kts | 140° |
| 2026-04-27 15:29 | 53.63685 | -1.35435 | 37290 ft | 566 kts | 140° |
| 2026-04-27 15:30 | 53.57590 | -1.27017 | 37286 ft | 567 kts | 140° |
| 2026-04-27 15:30 | 53.51482 | -1.18603 | 37275 ft | 567 kts | 140° |
| 2026-04-27 15:31 | 53.45386 | -1.10229 | 37274 ft | 567 kts | 140° |
| 2026-04-27 15:31 | 53.39281 | -1.01864 | 37297 ft | 566 kts | 140° |
| 2026-04-27 15:32 | 53.33209 | -0.93519 | 37273 ft | 564 kts | 140° |
| 2026-04-27 15:32 | 53.27145 | -0.85183 | 37268 ft | 565 kts | 140° |
| 2026-04-27 15:33 | 53.21113 | -0.76890 | 37259 ft | 565 kts | 140° |
| 2026-04-27 15:33 | 53.15044 | -0.68541 | 37265 ft | 565 kts | 140° |
| 2026-04-27 15:34 | 53.08980 | -0.60213 | 37268 ft | 565 kts | 140° |
| 2026-04-27 15:34 | 53.02896 | -0.51882 | 36813 ft | 566 kts | 141° |
| 2026-04-27 15:35 | 52.99951 | -0.47856 | 36032 ft | 540 kts | 141° |
| 2026-04-27 15:35 | 52.96965 | -0.43771 | 35302 ft | 556 kts | 140° |
| 2026-04-27 15:35 | 52.94050 | -0.39786 | 34601 ft | 547 kts | 140° |
| 2026-04-27 15:35 | 52.91125 | -0.35792 | 33836 ft | 541 kts | 140° |
| 2026-04-27 15:36 | 52.88234 | -0.31851 | 33058 ft | 536 kts | 140° |
| 2026-04-27 15:36 | 52.85356 | -0.27936 | 32289 ft | 534 kts | 141° |
| 2026-04-27 15:36 | 52.82495 | -0.24051 | 31524 ft | 529 kts | 141° |
| 2026-04-27 15:36 | 52.79661 | -0.20207 | 30782 ft | 527 kts | 141° |
| 2026-04-27 15:37 | 52.76832 | -0.16375 | 30001 ft | 520 kts | 141° |
| 2026-04-27 15:37 | 52.74112 | -0.12810 | 28118 ft | 452 kts | 146° |
| 2026-04-27 15:37 | 52.71426 | -0.09798 | 20868 ft | 536 kts | 137° |
| 2026-04-27 15:37 | 52.68725 | -0.05337 | 15958 ft | 553 kts | 137° |
| 2026-04-27 15:38 | 52.65918 | -0.01277 | 12920 ft | 514 kts | 156° |
| 2026-04-27 15:38 | 52.62713 | 0.00922 | 10822 ft | 479 kts | 155° |
| 2026-04-27 15:38 | 52.60870 | 0.04988 | 8770 ft | 443 kts | 116° |
| 2026-04-27 15:38 | 52.59554 | 0.09502 | 7115 ft | 427 kts | 115° |
| 2026-04-27 15:39 | 52.58386 | 0.13748 | 6251 ft | 399 kts | 113° |
| 2026-04-27 15:39 | 52.57295 | 0.17776 | 5633 ft | 373 kts | 113° |
| 2026-04-27 15:39 | 52.56312 | 0.21632 | 4668 ft | 359 kts | 106° |
| 2026-04-27 15:39 | 52.56058 | 0.25474 | 4413 ft | 323 kts | 90° |
| 2026-04-27 15:40 | 52.56243 | 0.28953 | 4157 ft | 294 kts | 81° |
| 2026-04-27 15:40 | 52.56442 | 0.32220 | 3712 ft | 278 kts | 82° |
| 2026-04-27 15:40 | 52.56635 | 0.35286 | 3387 ft | 261 kts | 82° |
| 2026-04-27 15:40 | 52.56800 | 0.38132 | 3206 ft | 240 kts | 82° |
| 2026-04-27 15:41 | 52.56940 | 0.40754 | 3000 ft | 220 kts | 80° |
| 2026-04-27 15:41 | 52.57071 | 0.43195 | 2769 ft | 213 kts | 79° |
| 2026-04-27 15:41 | 52.57207 | 0.45618 | 2289 ft | 207 kts | 81° |
| 2026-04-27 15:41 | 52.57415 | 0.47872 | 1967 ft | 194 kts | 76° |
| 2026-04-27 15:42 | 52.57857 | 0.49903 | 1519 ft | 187 kts | 50° |
| 2026-04-27 15:42 | 52.58661 | 0.51580 | 1398 ft | 184 kts | 47° |
| 2026-04-27 15:42 | 52.59492 | 0.53014 | 1253 ft | 175 kts | 41° |
| 2026-04-27 15:42 | 52.60438 | 0.54179 | 899 ft | 173 kts | 30° |
| 2026-04-27 15:43 | 52.61464 | 0.54878 | 758 ft | 155 kts | 18° |
| 2026-04-27 15:43 | 52.62549 | 0.55264 | 509 ft | 158 kts | 10° |
| 2026-04-27 15:43 | 52.63620 | 0.55505 | 390 ft | 147 kts | 8° |
| 2026-04-27 15:43 | 52.64529 | 0.55721 | 362 ft | 115 kts | 9° |
| 2026-04-27 15:44 | 52.64814 | 0.55801 | 364 ft | 0 kts | 11° |
| 2026-04-27 15:44 | 52.64816 | 0.55803 | 366 ft | 1 kts | 11° |
| 2026-04-27 15:44 | 52.64815 | 0.55804 | 366 ft | 6 kts | 11° |
| 2026-04-27 15:44 | 52.64777 | 0.55765 | 381 ft | 7 kts | 149° |
| 2026-04-27 15:45 | 52.64820 | 0.55782 | 371 ft | 2 kts | 186° |
| 2026-04-27 15:45 | 52.64796 | 0.55776 | 313 ft | 6 kts | 186° |
| 2026-04-27 15:45 | 52.64752 | 0.55770 | 217 ft | 6 kts | 181° |
| 2026-04-27 15:45 | 52.64723 | 0.55769 | 137 ft | 1 kts | 186° |
| 2026-04-27 15:46 | 52.64722 | 0.55770 | 81 ft | 1 kts | 183° |
| 2026-04-27 15:46 | 52.64719 | 0.55770 | 85 ft | 0 kts | 183° |
| 2026-04-27 15:46 | 52.64717 | 0.55770 | 85 ft | 1 kts | 183° |
| 2026-04-27 15:46 | 52.64583 | 0.55738 | 80 ft | 45 kts | 190° |
| 2026-04-27 15:47 | 52.64277 | 0.55666 | 84 ft | 39 kts | 189° |
| 2026-04-27 15:47 | 52.64021 | 0.55606 | 85 ft | 32 kts | 189° |
| 2026-04-27 15:47 | 52.63925 | 0.55454 | 83 ft | 17 kts | 274° |
| 2026-04-27 15:47 | 52.63935 | 0.55254 | 83 ft | 19 kts | 274° |
| 2026-04-27 15:48 | 52.63944 | 0.55057 | 83 ft | 6 kts | 275° |
| 2026-04-27 15:48 | 52.63958 | 0.54828 | 84 ft | 30 kts | 272° |
| 2026-04-27 15:48 | 52.63972 | 0.54509 | 85 ft | 27 kts | 276° |
| 2026-04-27 15:49 | 52.64000 | 0.54045 | 87 ft | 7 kts | 308° |
| 2026-04-27 15:49 | 52.64027 | 0.54015 | 86 ft | 3 kts | 280° |
| 2026-04-27 15:49 | 52.64020 | 0.54006 | 84 ft | 1 kts | 181° |